sensor_id;sensor_type;location;lat;lon;timestamp;pressure;altitude;pressure_sealevel;temperature;humidity
80986;BME280;70451;51.226;6.412;2023-06-01T00:02:22;101569.06;;;15.64;68.89
80986;BME280;70451;51.226;6.412;2023-06-01T00:04:37;101576.31;;;15.61;68.82
80986;BME280;70451;51.226;6.412;2023-06-01T00:06:55;101575.81;;;15.54;69.15
80986;BME280;70451;51.226;6.412;2023-06-01T00:09:11;101581.28;;;15.50;68.97
80986;BME280;70451;51.226;6.412;2023-06-01T00:11:26;101578.84;;;15.47;69.42
80986;BME280;70451;51.226;6.412;2023-06-01T00:13:42;101579.94;;;15.43;69.11
80986;BME280;70451;51.226;6.412;2023-06-01T00:15:57;101576.56;;;15.41;69.54
80986;BME280;70451;51.226;6.412;2023-06-01T00:18:12;101572.09;;;15.27;69.39
80986;BME280;70451;51.226;6.412;2023-06-01T00:20:30;101574.19;;;15.20;69.82
80986;BME280;70451;51.226;6.412;2023-06-01T00:22:47;101580.41;;;15.19;70.12
80986;BME280;70451;51.226;6.412;2023-06-01T00:25:07;101577.28;;;15.13;69.89
80986;BME280;70451;51.226;6.412;2023-06-01T00:27:22;101579.22;;;15.09;69.90
80986;BME280;70451;51.226;6.412;2023-06-01T00:29:38;101581.00;;;15.09;69.98
80986;BME280;70451;51.226;6.412;2023-06-01T00:31:54;101583.97;;;15.03;70.53
80986;BME280;70451;51.226;6.412;2023-06-01T00:34:10;101581.59;;;14.98;70.37
80986;BME280;70451;51.226;6.412;2023-06-01T00:36:25;101587.16;;;14.92;70.69
80986;BME280;70451;51.226;6.412;2023-06-01T00:38:40;101584.00;;;14.85;70.84
80986;BME280;70451;51.226;6.412;2023-06-01T00:40:56;101581.50;;;14.84;70.83
80986;BME280;70451;51.226;6.412;2023-06-01T00:43:11;101587.91;;;14.78;71.04
80986;BME280;70451;51.226;6.412;2023-06-01T00:45:28;101586.47;;;14.73;71.16
80986;BME280;70451;51.226;6.412;2023-06-01T00:47:43;101581.47;;;14.68;71.12
80986;BME280;70451;51.226;6.412;2023-06-01T00:49:59;101576.63;;;14.61;71.50
80986;BME280;70451;51.226;6.412;2023-06-01T00:52:15;101575.78;;;14.60;71.77
80986;BME280;70451;51.226;6.412;2023-06-01T00:54:30;101580.25;;;14.58;71.71
80986;BME280;70451;51.226;6.412;2023-06-01T00:56:46;101578.81;;;14.53;71.77
80986;BME280;70451;51.226;6.412;2023-06-01T00:59:02;101584.44;;;14.45;72.04
80986;BME280;70451;51.226;6.412;2023-06-01T01:01:18;101585.69;;;14.38;72.06
80986;BME280;70451;51.226;6.412;2023-06-01T01:03:37;101585.91;;;14.33;72.21
80986;BME280;70451;51.226;6.412;2023-06-01T01:06:04;101588.75;;;14.29;72.71
80986;BME280;70451;51.226;6.412;2023-06-01T01:11:04;101586.84;;;14.15;72.78
80986;BME280;70451;51.226;6.412;2023-06-01T01:13:37;101580.22;;;14.08;73.02
80986;BME280;70451;51.226;6.412;2023-06-01T01:18:25;101591.88;;;14.02;73.38
80986;BME280;70451;51.226;6.412;2023-06-01T01:20:44;101582.38;;;14.00;73.13
80986;BME280;70451;51.226;6.412;2023-06-01T01:26:08;101590.88;;;13.88;73.75
80986;BME280;70451;51.226;6.412;2023-06-01T01:28:32;101580.69;;;13.82;73.78
80986;BME280;70451;51.226;6.412;2023-06-01T01:30:52;101591.31;;;13.79;74.00
80986;BME280;70451;51.226;6.412;2023-06-01T01:33:09;101590.72;;;13.73;73.99
80986;BME280;70451;51.226;6.412;2023-06-01T01:35:26;101591.94;;;13.66;74.27
80986;BME280;70451;51.226;6.412;2023-06-01T01:37:55;101593.03;;;13.62;74.58
80986;BME280;70451;51.226;6.412;2023-06-01T01:40:11;101587.97;;;13.58;74.46
80986;BME280;70451;51.226;6.412;2023-06-01T01:42:27;101590.72;;;13.56;74.83
80986;BME280;70451;51.226;6.412;2023-06-01T01:44:44;101593.53;;;13.52;74.63
80986;BME280;70451;51.226;6.412;2023-06-01T01:47:21;101591.28;;;13.44;74.75
80986;BME280;70451;51.226;6.412;2023-06-01T01:49:42;101589.66;;;13.42;75.09
80986;BME280;70451;51.226;6.412;2023-06-01T01:52:23;101589.03;;;13.37;75.15
80986;BME280;70451;51.226;6.412;2023-06-01T01:54:45;101591.03;;;13.31;75.29
80986;BME280;70451;51.226;6.412;2023-06-01T01:57:01;101582.38;;;13.29;75.17
80986;BME280;70451;51.226;6.412;2023-06-01T01:59:18;101594.91;;;13.23;75.50
80986;BME280;70451;51.226;6.412;2023-06-01T02:01:34;101584.03;;;13.13;75.45
80986;BME280;70451;51.226;6.412;2023-06-01T02:03:59;101585.06;;;13.09;76.42
80986;BME280;70451;51.226;6.412;2023-06-01T02:06:15;101588.47;;;13.11;76.20
80986;BME280;70451;51.226;6.412;2023-06-01T02:08:30;101586.13;;;13.05;75.62
80986;BME280;70451;51.226;6.412;2023-06-01T02:10:46;101590.75;;;13.00;76.47
80986;BME280;70451;51.226;6.412;2023-06-01T02:13:01;101583.31;;;12.91;76.55
80986;BME280;70451;51.226;6.412;2023-06-01T02:15:16;101576.38;;;12.90;76.34
80986;BME280;70451;51.226;6.412;2023-06-01T02:17:31;101586.22;;;12.85;76.52
80986;BME280;70451;51.226;6.412;2023-06-01T02:19:48;101585.78;;;12.75;76.24
80986;BME280;70451;51.226;6.412;2023-06-01T02:22:03;101583.28;;;12.72;76.77
80986;BME280;70451;51.226;6.412;2023-06-01T02:24:18;101580.53;;;12.75;77.28
80986;BME280;70451;51.226;6.412;2023-06-01T02:26:35;101582.28;;;12.75;76.97
80986;BME280;70451;51.226;6.412;2023-06-01T02:28:50;101591.28;;;12.69;76.48
80986;BME280;70451;51.226;6.412;2023-06-01T02:31:06;101582.78;;;12.64;76.74
80986;BME280;70451;51.226;6.412;2023-06-01T02:33:21;101581.94;;;12.64;77.08
80986;BME280;70451;51.226;6.412;2023-06-01T02:35:40;101585.75;;;12.57;76.90
80986;BME280;70451;51.226;6.412;2023-06-01T02:37:55;101586.59;;;12.57;77.30
80986;BME280;70451;51.226;6.412;2023-06-01T02:40:11;101587.59;;;12.54;77.54
80986;BME280;70451;51.226;6.412;2023-06-01T02:42:27;101598.25;;;12.50;76.84
80986;BME280;70451;51.226;6.412;2023-06-01T02:44:42;101594.06;;;12.46;77.22
80986;BME280;70451;51.226;6.412;2023-06-01T02:46:57;101589.22;;;12.37;77.60
80986;BME280;70451;51.226;6.412;2023-06-01T02:49:13;101596.44;;;12.32;77.84
80986;BME280;70451;51.226;6.412;2023-06-01T02:51:28;101596.38;;;12.33;77.46
80986;BME280;70451;51.226;6.412;2023-06-01T02:53:43;101593.81;;;12.32;77.40
80986;BME280;70451;51.226;6.412;2023-06-01T02:55:59;101592.00;;;12.34;77.48
80986;BME280;70451;51.226;6.412;2023-06-01T02:58:14;101596.50;;;12.30;77.35
80986;BME280;70451;51.226;6.412;2023-06-01T03:00:31;101590.41;;;12.30;77.35
80986;BME280;70451;51.226;6.412;2023-06-01T03:02:47;101594.16;;;12.24;77.53
80986;BME280;70451;51.226;6.412;2023-06-01T03:05:03;101593.72;;;12.14;77.77
80986;BME280;70451;51.226;6.412;2023-06-01T03:07:21;101594.53;;;12.15;77.81
80986;BME280;70451;51.226;6.412;2023-06-01T03:09:36;101597.28;;;12.12;77.82
80986;BME280;70451;51.226;6.412;2023-06-01T03:11:51;101597.28;;;12.12;77.87
80986;BME280;70451;51.226;6.412;2023-06-01T03:14:07;101595.22;;;12.00;77.93
80986;BME280;70451;51.226;6.412;2023-06-01T03:16:23;101599.38;;;12.04;77.92
80986;BME280;70451;51.226;6.412;2023-06-01T03:18:38;101593.03;;;12.09;77.64
80986;BME280;70451;51.226;6.412;2023-06-01T03:20:53;101596.56;;;12.08;77.58
80986;BME280;70451;51.226;6.412;2023-06-01T03:23:09;101599.75;;;12.15;77.48
80986;BME280;70451;51.226;6.412;2023-06-01T03:25:25;101597.78;;;12.22;77.44
80986;BME280;70451;51.226;6.412;2023-06-01T03:27:40;101595.28;;;12.19;77.31
80986;BME280;70451;51.226;6.412;2023-06-01T03:29:56;101597.34;;;12.10;77.82
80986;BME280;70451;51.226;6.412;2023-06-01T03:32:11;101601.75;;;12.10;77.92
80986;BME280;70451;51.226;6.412;2023-06-01T03:34:27;101592.19;;;12.09;77.55
80986;BME280;70451;51.226;6.412;2023-06-01T03:36:47;101601.78;;;12.08;77.36
80986;BME280;70451;51.226;6.412;2023-06-01T03:39:03;101601.78;;;12.08;76.96
80986;BME280;70451;51.226;6.412;2023-06-01T03:41:23;101597.56;;;12.06;77.10
80986;BME280;70451;51.226;6.412;2023-06-01T03:43:38;101607.28;;;12.02;77.70
80986;BME280;70451;51.226;6.412;2023-06-01T03:45:53;101604.03;;;11.97;77.88
80986;BME280;70451;51.226;6.412;2023-06-01T03:48:09;101612.66;;;11.99;77.21
80986;BME280;70451;51.226;6.412;2023-06-01T03:50:24;101607.56;;;11.96;77.67
80986;BME280;70451;51.226;6.412;2023-06-01T03:52:40;101607.59;;;11.95;77.58
80986;BME280;70451;51.226;6.412;2023-06-01T03:54:57;101608.41;;;11.97;77.82
80986;BME280;70451;51.226;6.412;2023-06-01T03:57:13;101617.31;;;11.93;77.89
80986;BME280;70451;51.226;6.412;2023-06-01T03:59:28;101615.72;;;11.89;77.50
80986;BME280;70451;51.226;6.412;2023-06-01T04:01:44;101622.69;;;11.88;77.17
80986;BME280;70451;51.226;6.412;2023-06-01T04:04:03;101624.41;;;11.89;77.75
80986;BME280;70451;51.226;6.412;2023-06-01T04:06:19;101621.69;;;11.92;77.76
80986;BME280;70451;51.226;6.412;2023-06-01T04:08:35;101624.47;;;11.88;77.33
80986;BME280;70451;51.226;6.412;2023-06-01T04:10:51;101620.53;;;11.77;77.90
80986;BME280;70451;51.226;6.412;2023-06-01T04:13:06;101617.22;;;11.72;77.02
80986;BME280;70451;51.226;6.412;2023-06-01T04:15:21;101626.91;;;11.70;77.57
80986;BME280;70451;51.226;6.412;2023-06-01T04:17:38;101621.50;;;11.75;76.76
80986;BME280;70451;51.226;6.412;2023-06-01T04:19:53;101624.91;;;11.77;76.64
80986;BME280;70451;51.226;6.412;2023-06-01T04:22:09;101631.06;;;11.76;76.74
80986;BME280;70451;51.226;6.412;2023-06-01T04:24:24;101632.13;;;11.70;77.09
80986;BME280;70451;51.226;6.412;2023-06-01T04:26:40;101636.34;;;11.73;76.77
80986;BME280;70451;51.226;6.412;2023-06-01T04:28:55;101633.84;;;11.71;76.25
80986;BME280;70451;51.226;6.412;2023-06-01T04:31:12;101638.94;;;11.74;75.92
80986;BME280;70451;51.226;6.412;2023-06-01T04:33:34;101638.13;;;11.72;76.67
80986;BME280;70451;51.226;6.412;2023-06-01T04:35:50;101638.13;;;11.72;76.00
80986;BME280;70451;51.226;6.412;2023-06-01T04:38:08;101639.81;;;11.75;76.17
80986;BME280;70451;51.226;6.412;2023-06-01T04:40:24;101642.31;;;11.78;75.36
80986;BME280;70451;51.226;6.412;2023-06-01T04:42:41;101635.97;;;11.84;75.57
80986;BME280;70451;51.226;6.412;2023-06-01T04:44:57;101637.00;;;11.80;76.44
80986;BME280;70451;51.226;6.412;2023-06-01T04:47:13;101640.34;;;11.83;75.83
80986;BME280;70451;51.226;6.412;2023-06-01T04:49:29;101647.22;;;11.86;76.14
80986;BME280;70451;51.226;6.412;2023-06-01T04:51:45;101640.28;;;11.85;75.70
80986;BME280;70451;51.226;6.412;2023-06-01T04:54:00;101636.81;;;11.84;75.99
80986;BME280;70451;51.226;6.412;2023-06-01T04:56:18;101645.69;;;11.80;75.61
80986;BME280;70451;51.226;6.412;2023-06-01T04:58:34;101644.06;;;11.77;75.50
80986;BME280;70451;51.226;6.412;2023-06-01T05:00:50;101646.53;;;11.81;75.24
80986;BME280;70451;51.226;6.412;2023-06-01T05:03:05;101646.97;;;11.92;74.86
80986;BME280;70451;51.226;6.412;2023-06-01T05:05:21;101641.75;;;11.92;74.95
80986;BME280;70451;51.226;6.412;2023-06-01T05:07:37;101637.72;;;12.05;74.19
80986;BME280;70451;51.226;6.412;2023-06-01T05:10:07;101631.09;;;12.16;74.53
80986;BME280;70451;51.226;6.412;2023-06-01T05:12:22;101635.03;;;12.27;73.39
80986;BME280;70451;51.226;6.412;2023-06-01T05:14:38;101634.72;;;12.34;73.48
80986;BME280;70451;51.226;6.412;2023-06-01T05:16:53;101633.06;;;12.32;72.68
80986;BME280;70451;51.226;6.412;2023-06-01T05:19:08;101634.03;;;12.29;72.53
80986;BME280;70451;51.226;6.412;2023-06-01T05:21:24;101645.13;;;12.36;72.34
80986;BME280;70451;51.226;6.412;2023-06-01T05:23:39;101642.75;;;12.30;72.93
80986;BME280;70451;51.226;6.412;2023-06-01T05:25:55;101637.44;;;12.31;71.96
80986;BME280;70451;51.226;6.412;2023-06-01T05:28:17;101632.34;;;12.48;72.60
80986;BME280;70451;51.226;6.412;2023-06-01T05:30:32;101638.22;;;12.53;71.37
80986;BME280;70451;51.226;6.412;2023-06-01T05:32:47;101636.97;;;12.62;71.53
80986;BME280;70451;51.226;6.412;2023-06-01T05:35:03;101636.31;;;12.77;71.37
80986;BME280;70451;51.226;6.412;2023-06-01T05:37:19;101637.38;;;12.92;70.63
80986;BME280;70451;51.226;6.412;2023-06-01T05:39:34;101626.81;;;12.93;70.31
80986;BME280;70451;51.226;6.412;2023-06-01T05:41:50;101639.16;;;12.91;69.85
80986;BME280;70451;51.226;6.412;2023-06-01T05:44:05;101630.78;;;13.02;69.99
80986;BME280;70451;51.226;6.412;2023-06-01T05:46:21;101654.34;;;13.22;69.90
80986;BME280;70451;51.226;6.412;2023-06-01T05:48:36;101640.19;;;13.26;68.89
80986;BME280;70451;51.226;6.412;2023-06-01T05:50:51;101642.53;;;13.32;68.60
80986;BME280;70451;51.226;6.412;2023-06-01T05:53:08;101637.97;;;13.55;68.46
80986;BME280;70451;51.226;6.412;2023-06-01T05:55:23;101643.75;;;13.61;67.63
80986;BME280;70451;51.226;6.412;2023-06-01T05:57:39;101640.91;;;13.66;67.18
80986;BME280;70451;51.226;6.412;2023-06-01T05:59:54;101642.34;;;13.54;67.98
80986;BME280;70451;51.226;6.412;2023-06-01T06:02:09;101641.56;;;13.52;67.45
80986;BME280;70451;51.226;6.412;2023-06-01T06:04:25;101639.31;;;13.63;67.34
80986;BME280;70451;51.226;6.412;2023-06-01T06:06:40;101639.84;;;13.70;67.49
80986;BME280;70451;51.226;6.412;2023-06-01T06:08:56;101643.78;;;13.79;65.96
80986;BME280;70451;51.226;6.412;2023-06-01T06:11:11;101641.09;;;13.80;66.56
80986;BME280;70451;51.226;6.412;2023-06-01T06:13:26;101647.34;;;13.95;66.22
80986;BME280;70451;51.226;6.412;2023-06-01T06:15:41;101633.53;;;14.08;66.16
80986;BME280;70451;51.226;6.412;2023-06-01T06:17:57;101636.25;;;14.24;65.79
80986;BME280;70451;51.226;6.412;2023-06-01T06:20:12;101641.78;;;14.35;65.19
80986;BME280;70451;51.226;6.412;2023-06-01T06:22:30;101640.34;;;14.30;64.69
80986;BME280;70451;51.226;6.412;2023-06-01T06:24:45;101646.28;;;14.16;64.76
80986;BME280;70451;51.226;6.412;2023-06-01T06:27:02;101652.16;;;14.04;64.49
80986;BME280;70451;51.226;6.412;2023-06-01T06:29:18;101652.41;;;13.99;64.86
80986;BME280;70451;51.226;6.412;2023-06-01T06:31:33;101654.03;;;14.19;66.02
80986;BME280;70451;51.226;6.412;2023-06-01T06:33:49;101652.84;;;14.25;64.50
80986;BME280;70451;51.226;6.412;2023-06-01T06:36:05;101646.94;;;14.38;64.58
80986;BME280;70451;51.226;6.412;2023-06-01T06:38:20;101647.31;;;14.48;64.13
80986;BME280;70451;51.226;6.412;2023-06-01T06:40:35;101649.94;;;14.48;63.56
80986;BME280;70451;51.226;6.412;2023-06-01T06:42:51;101651.94;;;14.60;63.01
80986;BME280;70451;51.226;6.412;2023-06-01T06:45:07;101645.22;;;14.87;63.29
80986;BME280;70451;51.226;6.412;2023-06-01T06:47:22;101648.28;;;14.96;62.27
80986;BME280;70451;51.226;6.412;2023-06-01T06:49:39;101648.63;;;14.89;62.42
80986;BME280;70451;51.226;6.412;2023-06-01T06:51:55;101649.81;;;15.00;63.04
80986;BME280;70451;51.226;6.412;2023-06-01T06:54:11;101653.75;;;15.24;61.73
80986;BME280;70451;51.226;6.412;2023-06-01T06:56:26;101656.13;;;15.28;62.10
80986;BME280;70451;51.226;6.412;2023-06-01T06:58:41;101645.03;;;15.39;60.57
80986;BME280;70451;51.226;6.412;2023-06-01T07:00:57;101642.38;;;15.39;61.17
80986;BME280;70451;51.226;6.412;2023-06-01T07:03:12;101647.47;;;15.42;61.65
80986;BME280;70451;51.226;6.412;2023-06-01T07:05:27;101642.38;;;15.39;62.49
80986;BME280;70451;51.226;6.412;2023-06-01T07:07:43;101659.25;;;15.19;61.59
80986;BME280;70451;51.226;6.412;2023-06-01T07:09:58;101648.97;;;15.15;61.97
80986;BME280;70451;51.226;6.412;2023-06-01T07:12:13;101644.84;;;15.11;62.08
80986;BME280;70451;51.226;6.412;2023-06-01T07:14:29;101639.63;;;14.94;61.97
80986;BME280;70451;51.226;6.412;2023-06-01T07:43:17;101604.63;;;16.01;55.21
80986;BME280;70451;51.226;6.412;2023-06-01T07:45:32;101611.25;;;15.16;60.36
80986;BME280;70451;51.226;6.412;2023-06-01T07:47:47;101604.41;;;15.90;57.56
80986;BME280;70451;51.226;6.412;2023-06-01T07:50:03;101603.44;;;15.30;59.79
80986;BME280;70451;51.226;6.412;2023-06-01T07:52:18;101601.59;;;15.01;59.52
80986;BME280;70451;51.226;6.412;2023-06-01T07:54:34;101609.75;;;15.12;60.41
80986;BME280;70451;51.226;6.412;2023-06-01T07:56:52;101610.81;;;15.08;61.58
80986;BME280;70451;51.226;6.412;2023-06-01T07:59:08;101602.19;;;15.37;60.11
80986;BME280;70451;51.226;6.412;2023-06-01T08:01:24;101604.81;;;15.21;59.50
80986;BME280;70451;51.226;6.412;2023-06-01T08:03:42;101601.91;;;14.95;60.46
80986;BME280;70451;51.226;6.412;2023-06-01T08:05:58;101604.53;;;14.95;60.72
80986;BME280;70451;51.226;6.412;2023-06-01T08:08:14;101595.72;;;15.43;60.60
80986;BME280;70451;51.226;6.412;2023-06-01T08:10:30;101595.09;;;15.55;58.66
80986;BME280;70451;51.226;6.412;2023-06-01T08:12:46;101607.16;;;14.79;60.68
80986;BME280;70451;51.226;6.412;2023-06-01T08:15:03;101604.16;;;15.34;60.35
80986;BME280;70451;51.226;6.412;2023-06-01T08:17:19;101591.81;;;15.50;60.26
80986;BME280;70451;51.226;6.412;2023-06-01T08:19:34;101595.31;;;14.87;59.65
80986;BME280;70451;51.226;6.412;2023-06-01T08:21:50;101598.63;;;15.54;61.00
80986;BME280;70451;51.226;6.412;2023-06-01T08:24:06;101592.25;;;15.42;58.24
80986;BME280;70451;51.226;6.412;2023-06-01T08:26:22;101599.66;;;15.04;59.68
80986;BME280;70451;51.226;6.412;2023-06-01T08:28:37;101598.81;;;14.71;61.25
80986;BME280;70451;51.226;6.412;2023-06-01T08:30:53;101598.81;;;15.19;59.39
80986;BME280;70451;51.226;6.412;2023-06-01T08:33:09;101597.78;;;15.53;60.62
80986;BME280;70451;51.226;6.412;2023-06-01T08:35:24;101592.94;;;15.61;60.19
80986;BME280;70451;51.226;6.412;2023-06-01T08:37:40;101584.47;;;16.30;60.24
80986;BME280;70451;51.226;6.412;2023-06-01T08:39:55;101594.22;;;15.39;60.43
80986;BME280;70451;51.226;6.412;2023-06-01T08:42:20;101585.28;;;16.02;58.38
80986;BME280;70451;51.226;6.412;2023-06-01T08:44:40;101585.63;;;16.40;59.25
80986;BME280;70451;51.226;6.412;2023-06-01T08:46:56;101584.78;;;15.96;58.77
80986;BME280;70451;51.226;6.412;2023-06-01T08:49:13;101582.66;;;16.17;58.01
80986;BME280;70451;51.226;6.412;2023-06-01T08:51:32;101581.59;;;16.63;57.80
80986;BME280;70451;51.226;6.412;2023-06-01T08:53:49;101575.13;;;16.69;57.38
80986;BME280;70451;51.226;6.412;2023-06-01T08:56:06;101572.22;;;17.00;57.12
80986;BME280;70451;51.226;6.412;2023-06-01T08:58:22;101577.94;;;17.21;56.95
80986;BME280;70451;51.226;6.412;2023-06-01T09:00:37;101573.34;;;16.11;56.52
80986;BME280;70451;51.226;6.412;2023-06-01T09:02:53;101565.94;;;16.18;58.24
80986;BME280;70451;51.226;6.412;2023-06-01T09:05:09;101571.28;;;15.56;57.75
80986;BME280;70451;51.226;6.412;2023-06-01T09:07:26;101564.72;;;16.52;57.71
80986;BME280;70451;51.226;6.412;2023-06-01T09:09:43;101563.31;;;16.89;56.95
80986;BME280;70451;51.226;6.412;2023-06-01T09:14:32;101549.25;;;17.56;55.87
80986;BME280;70451;51.226;6.412;2023-06-01T09:16:49;101551.78;;;17.18;54.55
80986;BME280;70451;51.226;6.412;2023-06-01T09:19:04;101549.44;;;16.99;55.94
80986;BME280;70451;51.226;6.412;2023-06-01T09:21:19;101546.66;;;16.45;56.42
80986;BME280;70451;51.226;6.412;2023-06-01T09:23:35;101538.09;;;16.84;55.57
80986;BME280;70451;51.226;6.412;2023-06-01T09:26:07;101545.63;;;16.20;56.59
80986;BME280;70451;51.226;6.412;2023-06-01T09:28:22;101544.13;;;16.44;56.32
80986;BME280;70451;51.226;6.412;2023-06-01T09:33:14;101540.38;;;17.17;55.94
80986;BME280;70451;51.226;6.412;2023-06-01T09:35:40;101538.13;;;17.38;54.95
80986;BME280;70451;51.226;6.412;2023-06-01T09:37:56;101527.94;;;17.46;54.92
80986;BME280;70451;51.226;6.412;2023-06-01T09:40:18;101531.84;;;17.53;53.27
80986;BME280;70451;51.226;6.412;2023-06-01T09:42:34;101530.69;;;18.22;54.03
80986;BME280;70451;51.226;6.412;2023-06-01T09:44:50;101522.22;;;18.05;53.23
80986;BME280;70451;51.226;6.412;2023-06-01T09:47:12;101517.38;;;17.98;53.14
80986;BME280;70451;51.226;6.412;2023-06-01T09:51:44;101527.38;;;17.14;53.55
80986;BME280;70451;51.226;6.412;2023-06-01T09:54:00;101523.53;;;17.59;54.42
80986;BME280;70451;51.226;6.412;2023-06-01T09:56:15;101529.75;;;17.19;54.79
80986;BME280;70451;51.226;6.412;2023-06-01T09:58:31;101532.41;;;17.32;55.19
80986;BME280;70451;51.226;6.412;2023-06-01T10:00:49;101525.84;;;18.04;54.49
80986;BME280;70451;51.226;6.412;2023-06-01T10:03:05;101528.13;;;17.56;53.10
80986;BME280;70451;51.226;6.412;2023-06-01T10:05:21;101526.03;;;17.88;54.05
80986;BME280;70451;51.226;6.412;2023-06-01T10:07:37;101528.75;;;17.86;52.44
80986;BME280;70451;51.226;6.412;2023-06-01T10:09:55;101530.03;;;18.06;51.74
80986;BME280;70451;51.226;6.412;2023-06-01T10:12:13;101530.06;;;18.31;53.20
80986;BME280;70451;51.226;6.412;2023-06-01T10:14:29;101527.50;;;18.30;50.91
80986;BME280;70451;51.226;6.412;2023-06-01T10:16:48;101520.63;;;17.77;52.47
80986;BME280;70451;51.226;6.412;2023-06-01T10:19:04;101523.94;;;18.31;52.51
80986;BME280;70451;51.226;6.412;2023-06-01T10:21:20;101512.69;;;19.02;51.53
80986;BME280;70451;51.226;6.412;2023-06-01T10:23:36;101503.59;;;19.41;50.76
80986;BME280;70451;51.226;6.412;2023-06-01T10:25:52;101507.09;;;18.57;51.48
80986;BME280;70451;51.226;6.412;2023-06-01T10:28:11;101503.97;;;18.02;51.54
80986;BME280;70451;51.226;6.412;2023-06-01T10:30:26;101505.13;;;18.85;52.05
80986;BME280;70451;51.226;6.412;2023-06-01T10:32:46;101503.09;;;18.26;51.96
80986;BME280;70451;51.226;6.412;2023-06-01T10:35:03;101502.31;;;18.75;50.96
80986;BME280;70451;51.226;6.412;2023-06-01T10:37:19;101498.50;;;19.50;49.03
80986;BME280;70451;51.226;6.412;2023-06-01T10:39:35;101504.72;;;19.26;49.92
80986;BME280;70451;51.226;6.412;2023-06-01T10:41:50;101498.34;;;19.17;49.06
80986;BME280;70451;51.226;6.412;2023-06-01T10:44:06;101505.38;;;19.29;48.92
80986;BME280;70451;51.226;6.412;2023-06-01T10:46:35;101501.75;;;19.06;49.55
80986;BME280;70451;51.226;6.412;2023-06-01T10:48:55;101506.75;;;18.62;50.28
80986;BME280;70451;51.226;6.412;2023-06-01T10:51:19;101506.88;;;18.48;49.72
80986;BME280;70451;51.226;6.412;2023-06-01T10:53:34;101494.25;;;18.89;50.11
80986;BME280;70451;51.226;6.412;2023-06-01T10:56:19;101494.44;;;19.58;47.62
80986;BME280;70451;51.226;6.412;2023-06-01T10:58:37;101490.38;;;19.41;47.54
80986;BME280;70451;51.226;6.412;2023-06-01T11:00:54;101500.63;;;19.45;48.44
80986;BME280;70451;51.226;6.412;2023-06-01T11:03:10;101495.28;;;19.58;49.55
80986;BME280;70451;51.226;6.412;2023-06-01T11:07:54;101493.38;;;19.60;47.25
80986;BME280;70451;51.226;6.412;2023-06-01T11:10:11;101496.06;;;18.76;48.14
80986;BME280;70451;51.226;6.412;2023-06-01T11:12:26;101482.66;;;19.03;48.69
80986;BME280;70451;51.226;6.412;2023-06-01T11:15:08;101488.25;;;19.22;48.44
80986;BME280;70451;51.226;6.412;2023-06-01T11:17:29;101482.50;;;19.28;49.30
80986;BME280;70451;51.226;6.412;2023-06-01T11:19:45;101476.78;;;19.69;49.64
80986;BME280;70451;51.226;6.412;2023-06-01T11:22:01;101485.13;;;19.17;49.99
80986;BME280;70451;51.226;6.412;2023-06-01T11:24:20;101471.94;;;19.04;49.48
80986;BME280;70451;51.226;6.412;2023-06-01T11:26:40;101476.81;;;19.45;50.00
80986;BME280;70451;51.226;6.412;2023-06-01T11:29:04;101470.44;;;20.05;48.88
80986;BME280;70451;51.226;6.412;2023-06-01T11:31:19;101473.22;;;20.26;49.98
80986;BME280;70451;51.226;6.412;2023-06-01T11:33:38;101474.78;;;19.49;48.14
80986;BME280;70451;51.226;6.412;2023-06-01T11:35:59;101461.13;;;19.66;48.78
80986;BME280;70451;51.226;6.412;2023-06-01T11:38:15;101462.38;;;20.29;48.90
80986;BME280;70451;51.226;6.412;2023-06-01T11:40:31;101459.84;;;19.94;48.50
80986;BME280;70451;51.226;6.412;2023-06-01T11:42:46;101457.06;;;19.84;48.35
80986;BME280;70451;51.226;6.412;2023-06-01T11:45:02;101450.69;;;19.98;46.68
80986;BME280;70451;51.226;6.412;2023-06-01T11:47:17;101449.22;;;19.83;48.16
80986;BME280;70451;51.226;6.412;2023-06-01T11:49:40;101450.56;;;19.77;47.71
80986;BME280;70451;51.226;6.412;2023-06-01T11:51:57;101459.97;;;19.92;47.78
80986;BME280;70451;51.226;6.412;2023-06-01T11:54:12;101447.56;;;19.82;48.86
80986;BME280;70451;51.226;6.412;2023-06-01T11:56:32;101455.16;;;20.20;46.80
80986;BME280;70451;51.226;6.412;2023-06-01T11:58:48;101450.69;;;20.20;46.94
80986;BME280;70451;51.226;6.412;2023-06-01T12:01:03;101458.03;;;19.72;45.98
80986;BME280;70451;51.226;6.412;2023-06-01T12:03:20;101447.34;;;20.07;47.46
80986;BME280;70451;51.226;6.412;2023-06-01T12:05:39;101456.00;;;20.20;48.21
80986;BME280;70451;51.226;6.412;2023-06-01T12:07:58;101455.31;;;19.61;47.70
80986;BME280;70451;51.226;6.412;2023-06-01T12:10:16;101452.25;;;19.08;48.40
80986;BME280;70451;51.226;6.412;2023-06-01T12:12:32;101454.03;;;19.32;49.88
80986;BME280;70451;51.226;6.412;2023-06-01T12:14:49;101454.22;;;19.17;47.96
80986;BME280;70451;51.226;6.412;2023-06-01T12:17:04;101458.47;;;19.31;49.04
80986;BME280;70451;51.226;6.412;2023-06-01T12:19:20;101455.69;;;19.33;48.71
80986;BME280;70451;51.226;6.412;2023-06-01T12:21:36;101443.09;;;19.01;48.45
80986;BME280;70451;51.226;6.412;2023-06-01T12:23:51;101450.28;;;19.23;48.64
80986;BME280;70451;51.226;6.412;2023-06-01T12:26:07;101441.59;;;19.21;47.11
80986;BME280;70451;51.226;6.412;2023-06-01T12:28:24;101439.59;;;19.25;47.93
80986;BME280;70451;51.226;6.412;2023-06-01T12:30:41;101442.03;;;18.80;47.37
80986;BME280;70451;51.226;6.412;2023-06-01T12:32:56;101436.16;;;18.64;49.07
80986;BME280;70451;51.226;6.412;2023-06-01T12:35:11;101443.66;;;19.29;49.74
80986;BME280;70451;51.226;6.412;2023-06-01T12:37:27;101433.94;;;19.40;48.59
80986;BME280;70451;51.226;6.412;2023-06-01T12:39:43;101441.19;;;19.03;47.45
80986;BME280;70451;51.226;6.412;2023-06-01T12:41:58;101441.22;;;19.14;48.98